KCVS

Cannon AFB Airport

Clovis, New Mexico, USA
METAR KCVS 141258Z COR 00000KT 10SM CLR 18/18 A3003 RMK AO2 SLP111 $ COR 1305
Observed Flight Rules
Aug-14 @ 12:58 UTC (44 minutes ago) Visual Flight Rules
Visibility Clouds
10 miles
  • Clear skies
Temperatures Readings
Current 18°C / 64°F
Dewpoint 18°C / 64°F
Humidity 100%
Altimeter 30.03" Hg
Pressure 1011.1 hPa
Elevation 1309
METAR KCVS 141258Z COR 00000KT 10SM CLR 18/18 A3003 RMK AO2 SLP111 $ COR 1305
Observed Flight Rules
Aug-14 @ 12:58 UTC
(44 minutes ago)
VFR
Clouds
  • Clear skies
Temperature Dewpoint
18°C / 64°F 18°C / 64°F
Humidity Altimeter Pressure
100% 30.03" Hg 1011.1 hPa